createdAt,value
2018-08-25T00:00:10.082Z,14.80
2018-08-25T00:02:38.559Z,14.80
2018-08-25T00:05:07.267Z,14.70
2018-08-25T00:07:35.744Z,14.70
2018-08-25T00:10:04.435Z,14.70
2018-08-25T00:12:32.942Z,14.70
2018-08-25T00:15:01.411Z,14.70
2018-08-25T00:17:29.895Z,14.70
2018-08-25T00:19:58.444Z,14.70
2018-08-25T00:22:26.929Z,14.70
2018-08-25T00:24:55.406Z,14.70
2018-08-25T00:27:23.929Z,14.70
2018-08-25T00:29:52.506Z,14.70
2018-08-25T00:32:20.979Z,14.60
2018-08-25T00:34:49.486Z,14.60
2018-08-25T00:37:17.952Z,14.60
2018-08-25T00:39:46.458Z,14.60
2018-08-25T00:42:14.999Z,14.60
2018-08-25T00:44:43.486Z,14.60
2018-08-25T00:47:11.964Z,14.60
2018-08-25T00:49:40.463Z,14.60
2018-08-25T00:52:08.987Z,14.60
2018-08-25T00:54:37.517Z,14.70
2018-08-25T00:57:06.066Z,14.60
2018-08-25T00:59:34.593Z,14.60
2018-08-25T01:02:03.050Z,14.60
2018-08-25T01:04:31.639Z,14.70
2018-08-25T01:07:00.158Z,14.70
2018-08-25T01:09:28.632Z,14.60
2018-08-25T01:11:57.111Z,14.70
2018-08-25T01:14:25.566Z,14.70
2018-08-25T01:16:54.030Z,14.60
2018-08-25T01:19:22.602Z,14.60
2018-08-25T01:21:51.142Z,14.60
2018-08-25T01:24:19.599Z,14.60
2018-08-25T01:26:48.104Z,14.60
2018-08-25T01:29:16.570Z,14.60
2018-08-25T01:31:45.039Z,14.60
2018-08-25T01:34:13.670Z,14.60
2018-08-25T01:36:42.121Z,14.50
2018-08-25T01:39:10.590Z,14.50
2018-08-25T01:41:40.447Z,14.50
2018-08-25T01:44:08.952Z,14.40
2018-08-25T01:46:37.422Z,14.40
2018-08-25T01:49:06.035Z,14.40
2018-08-25T01:51:34.518Z,14.40
2018-08-25T01:54:02.998Z,14.40
2018-08-25T01:56:31.486Z,14.40
2018-08-25T01:59:00.114Z,14.40
2018-08-25T02:01:28.578Z,14.40
2018-08-25T02:03:57.066Z,14.40
2018-08-25T02:06:25.530Z,14.40
2018-08-25T02:08:53.990Z,14.30
2018-08-25T02:11:22.547Z,14.30
2018-08-25T02:13:51.088Z,14.30
2018-08-25T02:16:19.514Z,14.20
2018-08-25T02:18:48.046Z,14.20
2018-08-25T02:21:16.570Z,14.20
2018-08-25T02:23:45.074Z,14.20
2018-08-25T02:26:13.606Z,14.20
2018-08-25T02:28:42.080Z,14.10
2018-08-25T02:31:10.539Z,14.10
2018-08-25T02:33:39.014Z,14.10
2018-08-25T02:36:07.490Z,14.20
2018-08-25T02:38:36.025Z,14.10
2018-08-25T02:41:04.722Z,14.10
2018-08-25T02:43:33.164Z,14.10
2018-08-25T02:46:01.617Z,14.00
2018-08-25T02:48:30.107Z,14.00
2018-08-25T02:50:58.578Z,13.90
2018-08-25T02:53:27.038Z,13.90
2018-08-25T02:55:55.582Z,13.90
2018-08-25T02:58:24.114Z,13.80
2018-08-25T03:00:52.595Z,13.80
2018-08-25T03:03:21.906Z,13.80
2018-08-25T03:05:50.446Z,13.90
2018-08-25T03:08:18.893Z,13.90
2018-08-25T03:10:47.682Z,13.90
2018-08-25T03:13:16.144Z,13.90
2018-08-25T03:15:44.587Z,13.90
2018-08-25T03:18:13.087Z,13.90
2018-08-25T03:20:41.542Z,14.00
2018-08-25T03:23:10.012Z,14.00
2018-08-25T03:25:38.526Z,14.00
2018-08-25T03:28:06.978Z,14.10
2018-08-25T03:30:35.451Z,14.10
2018-08-25T03:33:03.955Z,14.10
2018-08-25T03:35:32.411Z,14.20
2018-08-25T03:38:00.890Z,14.20
2018-08-25T03:40:29.386Z,14.20
2018-08-25T03:42:57.861Z,14.20
2018-08-25T03:45:26.314Z,14.20
2018-08-25T03:47:54.846Z,14.20
2018-08-25T03:50:23.310Z,14.20
2018-08-25T03:52:51.759Z,14.20
2018-08-25T03:55:20.297Z,14.10
2018-08-25T03:57:48.776Z,14.20
2018-08-25T04:00:17.262Z,14.20
2018-08-25T04:02:45.778Z,14.20
2018-08-25T04:05:14.243Z,14.20
2018-08-25T04:07:42.778Z,14.10
2018-08-25T04:10:11.307Z,14.10
2018-08-25T04:12:39.758Z,14.10
2018-08-25T04:15:08.491Z,14.00
2018-08-25T04:17:37.062Z,14.00
2018-08-25T04:20:05.654Z,13.90
2018-08-25T04:22:34.838Z,13.90
2018-08-25T04:25:03.367Z,13.90
2018-08-25T04:27:31.883Z,13.90
2018-08-25T04:30:00.378Z,13.90
2018-08-25T04:32:28.933Z,13.90
2018-08-25T04:34:57.390Z,14.00
2018-08-25T04:37:25.878Z,14.00
2018-08-25T04:39:54.456Z,14.10
2018-08-25T04:42:22.902Z,14.20
2018-08-25T04:44:51.346Z,14.20
2018-08-25T04:47:19.942Z,14.30
2018-08-25T04:49:48.486Z,14.40
2018-08-25T04:52:17.111Z,14.40
2018-08-25T04:54:45.662Z,14.50
2018-08-25T04:57:14.199Z,14.50
2018-08-25T04:59:42.658Z,14.60
2018-08-25T05:02:11.143Z,14.60
2018-08-25T05:04:39.590Z,14.60
2018-08-25T05:07:08.060Z,14.70
2018-08-25T05:09:36.592Z,14.70
2018-08-25T05:12:05.054Z,14.70
2018-08-25T05:14:33.510Z,14.70
2018-08-25T05:17:02.126Z,14.80
2018-08-25T05:19:30.593Z,14.80
2018-08-25T05:21:59.198Z,14.80
2018-08-25T05:24:27.615Z,14.80
2018-08-25T05:26:56.099Z,14.80
2018-08-25T05:29:24.560Z,14.80
2018-08-25T05:31:53.050Z,14.90
2018-08-25T05:34:21.518Z,14.90
2018-08-25T05:36:50.016Z,15.00
2018-08-25T05:39:18.530Z,15.10
2018-08-25T05:41:46.978Z,15.20
2018-08-25T05:44:15.545Z,15.40
2018-08-25T05:46:43.970Z,15.40
2018-08-25T05:49:12.430Z,15.50
2018-08-25T05:51:40.904Z,15.60
2018-08-25T05:54:09.423Z,15.60
2018-08-25T05:56:37.963Z,15.60
2018-08-25T05:59:06.433Z,15.70
2018-08-25T06:01:34.994Z,15.70
2018-08-25T06:04:03.454Z,15.80
2018-08-25T06:06:31.960Z,16.00
2018-08-25T06:09:00.446Z,16.10
2018-08-25T06:11:28.975Z,16.10
2018-08-25T06:13:57.459Z,16.00
2018-08-25T06:16:25.958Z,15.90
2018-08-25T06:18:54.443Z,15.90
2018-08-25T06:21:22.904Z,15.80
2018-08-25T06:23:51.457Z,15.80
2018-08-25T06:26:19.922Z,15.80
2018-08-25T06:28:48.510Z,15.80
2018-08-25T06:31:17.019Z,15.90
2018-08-25T06:33:45.488Z,16.00
2018-08-25T06:36:13.942Z,16.10
2018-08-25T06:38:42.474Z,16.30
2018-08-25T06:41:10.923Z,16.30
2018-08-25T06:43:39.502Z,16.30
2018-08-25T06:46:09.129Z,16.40
2018-08-25T06:48:40.190Z,16.50
2018-08-25T06:51:08.687Z,16.60
2018-08-25T06:53:37.742Z,16.60
2018-08-25T06:56:06.255Z,16.70
2018-08-25T06:58:34.731Z,16.70
2018-08-25T07:01:03.317Z,16.70
2018-08-25T07:03:31.793Z,16.70
2018-08-25T07:06:00.281Z,16.80
2018-08-25T07:08:28.776Z,16.80
2018-08-25T07:10:57.278Z,16.80
2018-08-25T07:13:25.730Z,16.80
2018-08-25T07:15:54.221Z,16.90
2018-08-25T07:18:22.692Z,17.00
2018-08-25T07:20:51.151Z,17.00
2018-08-25T07:23:19.665Z,17.10
2018-08-25T07:25:48.523Z,17.10
2018-08-25T07:28:16.954Z,17.10
2018-08-25T07:30:45.530Z,17.00
2018-08-25T07:33:14.085Z,17.10
2018-08-25T07:35:42.530Z,17.10
2018-08-25T07:38:11.120Z,17.20
2018-08-25T07:40:39.544Z,17.30
2018-08-25T07:43:08.003Z,17.40
2018-08-25T07:45:36.496Z,17.40
2018-08-25T07:48:04.999Z,17.40
2018-08-25T07:50:33.476Z,17.30
2018-08-25T07:53:01.958Z,17.30
2018-08-25T07:55:30.433Z,17.30
2018-08-25T07:57:58.898Z,17.30
2018-08-25T08:00:27.384Z,17.30
2018-08-25T08:02:55.887Z,17.30
2018-08-25T08:05:24.401Z,17.40
2018-08-25T08:07:52.997Z,17.40
2018-08-25T08:10:21.506Z,17.40
2018-08-25T08:12:49.965Z,17.40
2018-08-25T08:15:18.499Z,17.50
2018-08-25T08:17:47.106Z,17.70
2018-08-25T08:20:15.602Z,17.70
2018-08-25T08:22:44.098Z,17.70
2018-08-25T08:25:12.579Z,17.80
2018-08-25T08:27:41.063Z,17.80
2018-08-25T08:30:09.674Z,17.70
2018-08-25T08:32:38.140Z,17.70
2018-08-25T08:35:06.738Z,17.70
2018-08-25T08:37:35.284Z,17.70
2018-08-25T08:40:03.799Z,17.80
2018-08-25T08:42:32.281Z,17.80
2018-08-25T08:45:00.778Z,17.90
2018-08-25T08:47:29.347Z,18.10
2018-08-25T08:49:57.805Z,18.20
2018-08-25T08:52:26.306Z,18.20
2018-08-25T08:54:54.797Z,18.30
2018-08-25T08:57:23.234Z,18.20
2018-08-25T08:59:51.775Z,18.10
2018-08-25T09:02:20.254Z,18.20
2018-08-25T09:04:48.734Z,18.20
2018-08-25T09:07:17.222Z,18.40
2018-08-25T09:09:45.710Z,18.50
2018-08-25T09:12:14.166Z,18.70
2018-08-25T09:14:42.701Z,18.80
2018-08-25T09:17:11.154Z,19.00
2018-08-25T09:19:39.643Z,19.30
2018-08-25T09:22:08.146Z,19.60
2018-08-25T09:24:36.612Z,19.70
2018-08-25T09:27:05.263Z,19.60
2018-08-25T09:29:33.838Z,19.50
2018-08-25T09:32:02.740Z,19.40
2018-08-25T09:34:31.186Z,19.20
2018-08-25T09:36:59.816Z,19.10
2018-08-25T09:39:28.153Z,18.90
2018-08-25T09:41:56.665Z,18.70
2018-08-25T09:44:25.220Z,18.40
2018-08-25T09:46:53.681Z,18.10
2018-08-25T09:49:22.127Z,17.70
2018-08-25T09:51:50.632Z,17.30
2018-08-25T09:54:19.099Z,16.80
2018-08-25T09:56:47.606Z,16.30
2018-08-25T09:59:16.134Z,15.90
2018-08-25T10:01:49.710Z,15.60
2018-08-25T10:04:18.186Z,15.50
2018-08-25T10:06:46.670Z,15.20
2018-08-25T10:09:15.134Z,15.20
2018-08-25T10:11:43.642Z,15.10
2018-08-25T10:14:12.138Z,14.90
2018-08-25T10:16:40.735Z,14.90
2018-08-25T10:19:09.234Z,14.80
2018-08-25T10:21:37.890Z,14.80
2018-08-25T10:24:06.495Z,14.90
2018-08-25T10:26:35.681Z,14.90
2018-08-25T10:29:04.297Z,15.10
2018-08-25T10:31:32.877Z,15.20
2018-08-25T10:34:01.427Z,15.50
2018-08-25T10:36:29.898Z,15.80
2018-08-25T10:38:58.606Z,16.00
2018-08-25T10:41:27.181Z,16.40
2018-08-25T10:43:55.642Z,16.70
2018-08-25T10:46:24.096Z,17.10
2018-08-25T10:48:52.610Z,17.50
2018-08-25T10:51:21.082Z,17.70
2018-08-25T10:53:49.621Z,17.90
2018-08-25T10:56:18.123Z,17.90
2018-08-25T10:58:46.570Z,17.90
2018-08-25T11:01:15.117Z,17.90
2018-08-25T11:03:43.574Z,18.00
2018-08-25T11:06:12.074Z,18.00
2018-08-25T11:08:40.567Z,18.10
2018-08-25T11:11:09.138Z,18.20
2018-08-25T11:13:37.621Z,18.50
2018-08-25T11:16:06.106Z,18.60
2018-08-25T11:18:34.694Z,18.60
2018-08-25T11:21:03.246Z,18.60
2018-08-25T11:23:31.792Z,18.50
2018-08-25T11:26:00.266Z,18.40
2018-08-25T11:28:28.709Z,18.30
2018-08-25T11:30:57.194Z,18.20
2018-08-25T11:33:25.704Z,18.00
2018-08-25T11:35:54.154Z,18.00
2018-08-25T11:38:22.634Z,18.00
2018-08-25T11:40:51.155Z,18.00
2018-08-25T11:43:19.615Z,18.00
2018-08-25T11:45:48.122Z,18.00
2018-08-25T11:48:16.698Z,18.10
2018-08-25T11:50:45.162Z,18.30
2018-08-25T11:53:13.662Z,18.60
2018-08-25T11:55:42.149Z,18.80
2018-08-25T11:58:10.646Z,19.00
2018-08-25T12:00:39.182Z,19.10
2018-08-25T12:03:07.673Z,19.10
2018-08-25T12:05:36.148Z,19.00
2018-08-25T12:08:04.650Z,19.00
2018-08-25T12:10:33.186Z,18.80
2018-08-25T12:13:01.647Z,18.60
2018-08-25T12:15:30.109Z,18.50
2018-08-25T12:17:58.703Z,18.40
2018-08-25T12:20:27.246Z,18.40
2018-08-25T12:22:55.754Z,18.40
2018-08-25T12:25:24.260Z,18.60
2018-08-25T12:27:52.718Z,18.50
2018-08-25T12:30:21.198Z,18.60
2018-08-25T12:32:49.686Z,18.50
2018-08-25T12:35:18.152Z,18.50
2018-08-25T12:37:46.687Z,18.40
2018-08-25T12:40:15.206Z,18.50
2018-08-25T12:42:43.688Z,18.50
2018-08-25T12:45:12.252Z,18.60
2018-08-25T12:47:40.686Z,18.70
2018-08-25T12:50:09.160Z,18.80
2018-08-25T12:52:37.604Z,18.90
2018-08-25T12:55:06.347Z,18.80
2018-08-25T12:57:34.827Z,18.70
2018-08-25T13:00:03.441Z,18.60
2018-08-25T13:02:32.059Z,18.40
2018-08-25T13:05:00.572Z,18.30
2018-08-25T13:07:29.105Z,18.30
2018-08-25T13:09:57.722Z,18.20
2018-08-25T13:12:26.254Z,18.20
2018-08-25T13:14:54.738Z,18.00
2018-08-25T13:17:23.390Z,17.90
2018-08-25T13:19:52.022Z,17.70
2018-08-25T13:22:20.511Z,17.60
2018-08-25T13:24:49.145Z,17.40
2018-08-25T13:27:17.631Z,17.30
2018-08-25T13:29:52.691Z,17.20
2018-08-25T13:32:27.373Z,17.00
2018-08-25T13:37:59.580Z,16.30
2018-08-25T13:40:32.181Z,15.80
2018-08-25T13:43:19.505Z,15.40
2018-08-25T13:45:58.067Z,15.20
2018-08-25T13:48:39.658Z,15.00
2018-08-25T13:56:56.132Z,14.70
2018-08-25T13:59:24.979Z,14.60
2018-08-25T14:01:53.511Z,14.60
2018-08-25T14:04:22.170Z,14.60
2018-08-25T14:06:50.776Z,14.70
2018-08-25T14:09:19.316Z,14.80
2018-08-25T14:11:47.844Z,14.90
2018-08-25T14:14:16.410Z,15.20
2018-08-25T14:16:44.934Z,15.30
2018-08-25T14:19:13.657Z,15.60
2018-08-25T14:21:42.170Z,15.70
2018-08-25T14:24:11.226Z,15.80
2018-08-25T14:26:39.743Z,15.80
2018-08-25T14:29:08.252Z,15.70
2018-08-25T14:31:36.742Z,15.70
2018-08-25T14:34:05.390Z,15.70
2018-08-25T14:36:33.958Z,15.60
2018-08-25T14:39:02.486Z,15.60
2018-08-25T14:41:31.003Z,15.60
2018-08-25T14:43:59.474Z,15.60
2018-08-25T14:46:27.955Z,15.60
2018-08-25T14:48:56.475Z,15.60
2018-08-25T14:51:24.934Z,15.50
2018-08-25T14:53:53.419Z,15.40
2018-08-25T14:56:22.000Z,15.30
2018-08-25T14:58:50.517Z,15.30
2018-08-25T15:01:19.070Z,15.20
2018-08-25T15:03:47.614Z,15.20
2018-08-25T15:06:16.099Z,15.10
2018-08-25T15:08:44.578Z,15.00
2018-08-25T15:11:13.131Z,15.00
2018-08-25T15:13:41.601Z,15.00
2018-08-25T15:16:10.070Z,14.90
2018-08-25T15:18:38.597Z,14.90
2018-08-25T15:21:07.337Z,14.80
2018-08-25T15:23:35.847Z,14.80
2018-08-25T15:26:04.834Z,14.70
2018-08-25T15:28:33.384Z,14.60
2018-08-25T15:31:02.328Z,14.50
2018-08-25T15:33:31.047Z,14.40
2018-08-25T15:36:04.267Z,14.30
2018-08-25T15:38:38.082Z,14.10
2018-08-25T15:41:09.173Z,13.80
2018-08-25T15:43:37.899Z,13.60
2018-08-25T15:46:09.639Z,13.40
2018-08-25T15:48:38.182Z,13.30
2018-08-25T15:51:06.731Z,13.10
2018-08-25T15:53:35.275Z,13.00
2018-08-25T15:56:03.890Z,12.80
2018-08-25T15:58:40.446Z,12.80
2018-08-25T16:01:09.301Z,12.70
2018-08-25T16:03:37.852Z,12.70
2018-08-25T16:06:06.978Z,12.60
2018-08-25T16:08:35.434Z,12.60
2018-08-25T16:11:03.923Z,12.50
2018-08-25T16:13:32.439Z,12.50
2018-08-25T16:16:01.019Z,12.50
2018-08-25T16:18:29.515Z,12.50
2018-08-25T16:20:58.051Z,12.50
2018-08-25T16:23:26.617Z,12.60
2018-08-25T16:25:55.125Z,12.60
2018-08-25T16:28:23.984Z,12.70
2018-08-25T16:30:52.645Z,12.70
2018-08-25T16:33:21.215Z,12.70
2018-08-25T16:35:49.801Z,12.70
2018-08-25T16:38:18.326Z,12.80
2018-08-25T16:40:46.818Z,12.80
2018-08-25T16:43:15.398Z,12.80
2018-08-25T16:45:43.883Z,12.80
2018-08-25T16:48:12.370Z,12.80
2018-08-25T16:50:41.054Z,12.70
2018-08-25T16:53:09.549Z,12.70
2018-08-25T16:55:38.263Z,12.60
2018-08-25T16:58:06.975Z,12.60
2018-08-25T17:00:35.494Z,12.50
2018-08-25T17:03:05.169Z,12.40
2018-08-25T17:05:33.698Z,12.40
2018-08-25T17:08:06.407Z,12.30
2018-08-25T17:10:41.136Z,12.30
2018-08-25T17:13:09.694Z,12.30
2018-08-25T17:15:38.190Z,12.30
2018-08-25T17:18:06.758Z,12.30
2018-08-25T17:20:35.229Z,12.30
2018-08-25T17:23:03.787Z,12.30
2018-08-25T17:25:32.294Z,12.30
2018-08-25T17:28:00.755Z,12.20
2018-08-25T17:30:29.252Z,12.20
2018-08-25T17:32:57.760Z,12.20
2018-08-25T17:35:26.270Z,12.20
2018-08-25T17:37:54.846Z,12.20
2018-08-25T17:40:23.334Z,12.10
2018-08-25T17:42:51.790Z,12.10
2018-08-25T17:45:20.371Z,12.10
2018-08-25T17:47:48.911Z,12.10
2018-08-25T17:50:17.386Z,12.00
2018-08-25T17:52:45.879Z,12.00
2018-08-25T17:55:14.551Z,12.00
2018-08-25T17:57:43.193Z,12.00
2018-08-25T18:00:13.438Z,12.00
2018-08-25T18:02:41.972Z,12.00
2018-08-25T18:05:10.706Z,12.00
2018-08-25T18:07:39.231Z,12.00
2018-08-25T18:10:07.768Z,12.00
2018-08-25T18:12:36.294Z,12.00
2018-08-25T18:15:04.915Z,11.90
2018-08-25T18:17:33.514Z,11.90
2018-08-25T18:20:01.971Z,11.90
2018-08-25T18:22:30.501Z,11.80
2018-08-25T18:24:59.022Z,11.80
2018-08-25T18:27:27.478Z,11.80
2018-08-25T18:29:56.175Z,11.80
2018-08-25T18:32:24.759Z,11.70
2018-08-25T18:34:53.259Z,11.70
2018-08-25T18:37:21.724Z,11.70
2018-08-25T18:39:50.239Z,11.70
2018-08-25T18:42:18.771Z,11.70
2018-08-25T18:44:47.274Z,11.70
2018-08-25T18:47:15.778Z,11.80
2018-08-25T18:49:44.246Z,11.80
2018-08-25T18:52:12.718Z,11.80
2018-08-25T18:54:41.367Z,11.90
2018-08-25T18:57:09.809Z,11.90
2018-08-25T18:59:38.415Z,11.90
2018-08-25T19:02:07.096Z,11.90
2018-08-25T19:04:35.486Z,11.80
2018-08-25T19:07:03.966Z,11.90
2018-08-25T19:09:32.500Z,11.90
2018-08-25T19:12:00.979Z,11.90
2018-08-25T19:14:29.454Z,11.90
2018-08-25T19:16:57.943Z,12.00
2018-08-25T19:19:26.434Z,12.10
2018-08-25T19:21:54.923Z,12.10
2018-08-25T19:24:23.459Z,12.20
2018-08-25T19:26:51.995Z,12.20
2018-08-25T19:29:20.471Z,12.20
2018-08-25T19:31:49.082Z,12.30
2018-08-25T19:34:17.638Z,12.30
2018-08-25T19:36:46.119Z,12.30
2018-08-25T19:39:14.616Z,12.30
2018-08-25T19:41:43.123Z,12.40
2018-08-25T19:44:11.609Z,12.40
2018-08-25T19:46:40.142Z,12.40
2018-08-25T19:49:08.606Z,12.40
2018-08-25T19:51:37.119Z,12.40
2018-08-25T19:54:05.901Z,12.30
2018-08-25T19:56:34.394Z,12.40
2018-08-25T19:59:02.895Z,12.30
2018-08-25T20:01:31.406Z,12.40
2018-08-25T20:03:59.903Z,12.40
2018-08-25T20:06:28.370Z,12.40
2018-08-25T20:08:56.906Z,12.40
2018-08-25T20:11:29.270Z,12.40
2018-08-25T20:13:57.742Z,12.40
2018-08-25T20:16:26.364Z,12.40
2018-08-25T20:18:54.862Z,12.50
2018-08-25T20:21:23.395Z,12.50
2018-08-25T20:23:51.978Z,12.50
2018-08-25T20:26:21.035Z,12.50
2018-08-25T20:28:49.554Z,12.50
2018-08-25T20:31:18.055Z,12.50
2018-08-25T20:33:46.558Z,12.50
2018-08-25T20:36:15.274Z,12.50
2018-08-25T20:38:43.799Z,12.50
2018-08-25T20:41:12.254Z,12.50
2018-08-25T20:43:40.731Z,12.50
2018-08-25T20:46:12.735Z,12.50
2018-08-25T20:48:41.202Z,12.60
2018-08-25T20:51:09.658Z,12.50
2018-08-25T20:53:38.182Z,12.50
2018-08-25T20:56:06.698Z,12.50
2018-08-25T20:58:35.177Z,12.60
2018-08-25T21:01:03.697Z,12.50
2018-08-25T21:03:32.151Z,12.50
2018-08-25T21:06:00.655Z,12.50
2018-08-25T21:08:29.143Z,12.50
2018-08-25T21:10:57.792Z,12.40
2018-08-25T21:13:26.242Z,12.40
2018-08-25T21:15:54.823Z,12.40
2018-08-25T21:18:23.239Z,12.30
2018-08-25T21:20:51.698Z,12.30
2018-08-25T21:23:20.205Z,12.30
2018-08-25T21:25:48.702Z,12.20
2018-08-25T21:28:17.146Z,12.30
2018-08-25T21:30:45.656Z,12.20
2018-08-25T21:33:14.151Z,12.30
2018-08-25T21:35:42.607Z,12.20
2018-08-25T21:38:11.329Z,12.30
2018-08-25T21:40:39.808Z,12.30
2018-08-25T21:43:08.275Z,12.30
2018-08-25T21:45:36.778Z,12.40
2018-08-25T21:48:05.256Z,12.40
2018-08-25T21:50:33.737Z,12.40
2018-08-25T21:53:02.250Z,12.40
2018-08-25T21:55:30.711Z,12.40
2018-08-25T21:57:59.178Z,12.40
2018-08-25T22:00:27.852Z,12.40
2018-08-25T22:02:56.334Z,12.50
2018-08-25T22:05:24.823Z,12.50
2018-08-25T22:07:53.354Z,12.50
2018-08-25T22:10:21.855Z,12.50
2018-08-25T22:12:50.310Z,12.50
2018-08-25T22:15:18.791Z,12.50
2018-08-25T22:17:47.258Z,12.50
2018-08-25T22:20:15.726Z,12.50
2018-08-25T22:22:44.245Z,12.50
2018-08-25T22:25:12.688Z,12.50
2018-08-25T22:27:41.198Z,12.50
2018-08-25T22:30:09.738Z,12.50
2018-08-25T22:32:38.194Z,12.50
2018-08-25T22:35:06.678Z,12.60
2018-08-25T22:37:35.183Z,12.60
2018-08-25T22:40:03.707Z,12.60
2018-08-25T22:42:32.167Z,12.60
2018-08-25T22:45:00.690Z,12.60
2018-08-25T22:47:29.155Z,12.60
2018-08-25T22:49:57.641Z,12.60
2018-08-25T22:52:31.487Z,12.50
2018-08-25T22:54:59.998Z,12.50
2018-08-25T22:57:28.463Z,12.50
2018-08-25T22:59:57.015Z,12.40
2018-08-25T23:02:25.559Z,12.40
2018-08-25T23:04:54.034Z,12.30
2018-08-25T23:07:22.540Z,12.30
2018-08-25T23:09:54.207Z,12.30
2018-08-25T23:12:22.710Z,12.30
2018-08-25T23:14:51.198Z,12.20
2018-08-25T23:17:19.973Z,12.20
2018-08-25T23:19:48.487Z,12.20
2018-08-25T23:22:16.998Z,12.10
2018-08-25T23:24:45.483Z,12.10
2018-08-25T23:27:13.966Z,12.10
2018-08-25T23:29:42.586Z,12.00
2018-08-25T23:32:11.059Z,12.00
2018-08-25T23:34:39.518Z,12.00
2018-08-25T23:37:08.038Z,12.00
2018-08-25T23:39:36.498Z,12.00
2018-08-25T23:42:05.010Z,12.10
2018-08-25T23:44:33.510Z,12.10
2018-08-25T23:47:02.026Z,12.10
2018-08-25T23:49:30.914Z,12.20
2018-08-25T23:51:59.391Z,12.20
2018-08-25T23:54:27.862Z,12.20
2018-08-25T23:56:56.354Z,12.20
2018-08-25T23:59:24.823Z,12.20
